createdAt,value
2018-08-07T00:00:18.154Z,100722.26
2018-08-07T00:02:49.465Z,100720.66
2018-08-07T00:05:18.366Z,100712.28
2018-08-07T00:07:48.517Z,100713.66
2018-08-07T00:10:19.141Z,100710.69
2018-08-07T00:12:48.654Z,100707.67
2018-08-07T00:15:17.397Z,100698.66
2018-08-07T00:17:46.733Z,100697.59
2018-08-07T00:20:17.251Z,100690.75
2018-08-07T00:22:46.102Z,100698.85
2018-08-07T00:25:14.801Z,100692.37
2018-08-07T00:27:43.698Z,100683.37
2018-08-07T00:30:13.408Z,100684.15
2018-08-07T00:32:42.091Z,100676.91
2018-08-07T00:35:16.701Z,100677.73
2018-08-07T00:37:45.853Z,100671.06
2018-08-07T00:40:21.093Z,100664.67
2018-08-07T00:42:49.635Z,100669.13
2018-08-07T00:45:20.560Z,100669.77
2018-08-07T00:47:49.402Z,100661.22
2018-08-07T00:50:19.511Z,100663.48
2018-08-07T00:52:50.055Z,100667.41
2018-08-07T00:55:19.457Z,100659.78
2018-08-07T00:57:48.589Z,100661.95
2018-08-07T01:00:17.214Z,100659.50
2018-08-07T01:02:45.783Z,100659.86
2018-08-07T01:05:16.148Z,100655.56
2018-08-07T01:07:44.844Z,100654.52
2018-08-07T01:10:14.992Z,100658.16
2018-08-07T01:12:43.675Z,100658.33
2018-08-07T01:15:15.034Z,100655.02
2018-08-07T01:17:45.208Z,100654.23
2018-08-07T01:20:16.715Z,100653.09
2018-08-07T01:22:45.880Z,100653.42
2018-08-07T01:25:18.501Z,100653.26
2018-08-07T01:27:47.285Z,100649.49
2018-08-07T01:30:17.749Z,100647.56
2018-08-07T01:32:46.294Z,100646.35
2018-08-07T01:35:15.944Z,100638.72
2018-08-07T01:37:45.264Z,100638.04
2018-08-07T01:40:14.523Z,100640.42
2018-08-07T01:42:43.095Z,100645.36
2018-08-07T01:45:13.203Z,100640.36
2018-08-07T01:47:42.652Z,100638.42
2018-08-07T01:50:13.034Z,100645.98
2018-08-07T01:54:11.621Z,100637.80
2018-08-07T01:56:40.127Z,100643.66
2018-08-07T01:59:08.547Z,100640.28
2018-08-07T02:01:37.031Z,100639.53
2018-08-07T02:04:05.512Z,100633.51
2018-08-07T02:06:34.115Z,100635.97
2018-08-07T02:09:02.851Z,100628.66
2018-08-07T02:11:31.624Z,100628.14
2018-08-07T02:14:00.067Z,100626.95
2018-08-07T02:16:29.575Z,100625.34
2018-08-07T02:18:58.694Z,100628.06
2018-08-07T02:21:27.165Z,100626.36
2018-08-07T02:23:56.435Z,100618.05
2018-08-07T02:26:24.874Z,100612.95
2018-08-07T02:28:53.321Z,100616.77
2018-08-07T02:31:21.918Z,100616.87
2018-08-07T02:33:51.348Z,100611.41
2018-08-07T02:36:20.375Z,100604.86
2018-08-07T02:38:49.133Z,100605.91
2018-08-07T02:41:17.564Z,100605.91
2018-08-07T02:43:46.014Z,100603.27
2018-08-07T02:46:14.718Z,100598.55
2018-08-07T02:48:43.144Z,100600.09
2018-08-07T02:51:12.381Z,100603.62
2018-08-07T02:53:41.025Z,100603.16
2018-08-07T02:56:09.627Z,100599.75
2018-08-07T02:58:38.420Z,100603.77
2018-08-07T03:01:07.202Z,100604.98
2018-08-07T03:03:36.277Z,100608.00
2018-08-07T03:06:04.739Z,100599.30
2018-08-07T03:08:34.115Z,100594.92
2018-08-07T03:11:03.004Z,100592.52
2018-08-07T03:13:31.403Z,100596.84
2018-08-07T03:16:00.028Z,100593.83
2018-08-07T03:18:28.461Z,100594.45
2018-08-07T03:20:56.897Z,100590.16
2018-08-07T03:23:25.305Z,100593.30
2018-08-07T03:25:54.136Z,100590.68
2018-08-07T03:28:22.557Z,100590.38
2018-08-07T03:30:51.042Z,100597.08
2018-08-07T03:33:19.524Z,100597.14
2018-08-07T03:35:48.877Z,100599.30
2018-08-07T03:38:17.386Z,100595.38
2018-08-07T03:40:46.221Z,100593.30
2018-08-07T03:43:14.833Z,100599.08
2018-08-07T03:45:43.428Z,100603.06
2018-08-07T03:48:11.996Z,100607.94
2018-08-07T03:50:40.479Z,100610.91
2018-08-07T03:53:09.136Z,100615.45
2018-08-07T03:55:37.533Z,100611.23
2018-08-07T03:58:06.101Z,100615.55
2018-08-07T04:00:38.676Z,100612.77
2018-08-07T04:03:07.723Z,100604.77
2018-08-07T04:05:37.365Z,100609.15
2018-08-07T04:08:06.041Z,100611.55
2018-08-07T04:10:34.737Z,100607.94
2018-08-07T04:13:03.197Z,100615.69
2018-08-07T04:15:31.678Z,100615.98
2018-08-07T04:18:00.176Z,100618.24
2018-08-07T04:20:28.618Z,100608.53
2018-08-07T04:22:57.202Z,100608.84
2018-08-07T04:25:25.752Z,100611.92
2018-08-07T04:27:54.771Z,100609.41
2018-08-07T04:30:23.626Z,100610.85
2018-08-07T04:32:52.872Z,100610.39
2018-08-07T04:35:21.434Z,100606.41
2018-08-07T04:37:50.051Z,100606.28
2018-08-07T04:40:18.776Z,100606.28
2018-08-07T04:42:47.390Z,100602.19
2018-08-07T04:45:17.115Z,100605.56
2018-08-07T04:47:46.184Z,100601.73
2018-08-07T04:50:14.659Z,100599.42
2018-08-07T04:54:13.832Z,100604.65
2018-08-07T04:56:42.371Z,100600.95
2018-08-07T04:59:11.146Z,100606.08
2018-08-07T05:01:39.666Z,100604.08
2018-08-07T05:04:08.773Z,100601.45
2018-08-07T05:06:37.262Z,100601.84
2018-08-07T05:09:07.595Z,100596.06
2018-08-07T05:11:36.048Z,100601.48
2018-08-07T05:14:04.544Z,100598.02
2018-08-07T05:16:33.804Z,100600.63
2018-08-07T05:19:03.179Z,100605.09
2018-08-07T05:21:32.527Z,100609.77
2018-08-07T05:24:01.578Z,100607.60
2018-08-07T05:26:30.006Z,100606.28
2018-08-07T05:28:58.409Z,100601.95
2018-08-07T05:31:26.994Z,100606.79
2018-08-07T05:33:55.473Z,100600.75
2018-08-07T05:36:24.283Z,100595.14
2018-08-07T05:38:52.781Z,100601.81
2018-08-07T05:41:21.268Z,100595.58
2018-08-07T05:43:49.791Z,100597.08
2018-08-07T05:46:18.563Z,100598.25
2018-08-07T05:48:47.061Z,100601.91
2018-08-07T05:51:15.942Z,100602.97
2018-08-07T05:53:46.101Z,100600.00
2018-08-07T05:56:14.648Z,100599.58
2018-08-07T05:58:46.853Z,100598.59
2018-08-07T06:01:15.394Z,100603.55
2018-08-07T06:03:43.935Z,100600.93
2018-08-07T06:06:12.422Z,100606.21
2018-08-07T06:08:41.064Z,100608.20
2018-08-07T06:11:09.947Z,100606.09
2018-08-07T06:13:38.457Z,100610.77
2018-08-07T06:16:08.474Z,100608.63
2018-08-07T06:18:37.982Z,100609.70
2018-08-07T06:21:06.706Z,100615.81
2018-08-07T06:23:36.393Z,100614.23
2018-08-07T06:26:05.704Z,100609.86
2018-08-07T06:28:34.412Z,100618.98
2018-08-07T06:31:03.678Z,100611.39
2018-08-07T06:33:32.116Z,100613.83
2018-08-07T06:36:00.794Z,100617.59
2018-08-07T06:38:29.296Z,100616.33
2018-08-07T06:40:59.867Z,100616.45
2018-08-07T06:43:28.923Z,100613.56
2018-08-07T06:45:57.886Z,100613.17
2018-08-07T06:48:26.527Z,100610.01
2018-08-07T06:50:55.877Z,100609.35
2018-08-07T06:53:24.453Z,100611.51
2018-08-07T06:55:53.907Z,100607.45
2018-08-07T06:58:22.428Z,100606.33
2018-08-07T07:00:51.753Z,100599.02
2018-08-07T07:03:20.591Z,100602.83
2018-08-07T07:05:49.884Z,100600.13
2018-08-07T07:08:18.755Z,100600.20
2018-08-07T07:10:47.318Z,100601.69
2018-08-07T07:13:15.962Z,100603.36
2018-08-07T07:15:44.536Z,100603.59
2018-08-07T07:18:13.008Z,100600.48
2018-08-07T07:20:41.792Z,100599.31
2018-08-07T07:23:10.334Z,100604.02
2018-08-07T07:25:39.446Z,100598.81
2018-08-07T07:28:08.203Z,100595.20
2018-08-07T07:30:37.589Z,100599.70
2018-08-07T07:33:06.226Z,100599.96
2018-08-07T07:35:35.412Z,100597.67
2018-08-07T07:38:04.645Z,100592.70
2018-08-07T07:40:33.225Z,100586.92
2018-08-07T07:43:02.398Z,100583.05
2018-08-07T07:45:31.009Z,100576.97
2018-08-07T07:48:04.572Z,100578.83
2018-08-07T07:50:35.032Z,100578.73
2018-08-07T07:53:04.496Z,100579.74
2018-08-07T07:55:34.797Z,100576.89
2018-08-07T07:58:06.077Z,100571.78
2018-08-07T08:00:35.450Z,100574.73
2018-08-07T08:03:04.364Z,100571.66
2018-08-07T08:05:33.701Z,100569.34
2018-08-07T08:08:03.810Z,100564.98
2018-08-07T08:10:33.637Z,100553.77
2018-08-07T08:13:03.615Z,100553.47
2018-08-07T08:15:33.843Z,100557.91
2018-08-07T08:21:34.959Z,100555.83
2018-08-07T08:24:03.880Z,100554.55
2018-08-07T08:26:34.266Z,100549.66
2018-08-07T08:29:03.331Z,100553.53
2018-08-07T08:31:34.357Z,100552.64
2018-08-07T08:34:03.025Z,100552.07
2018-08-07T08:36:33.161Z,100552.01
2018-08-07T08:39:02.420Z,100554.89
2018-08-07T08:41:33.183Z,100558.28
2018-08-07T08:44:03.461Z,100561.77
2018-08-07T08:46:33.885Z,100559.50
2018-08-07T08:49:03.431Z,100563.25
2018-08-07T08:51:35.952Z,100551.86
2018-08-07T08:54:05.621Z,100558.97
2018-08-07T08:56:34.667Z,100553.59
2018-08-07T08:59:04.928Z,100563.21
2018-08-07T09:01:39.489Z,100551.80
2018-08-07T09:04:08.262Z,100556.26
2018-08-07T09:06:37.696Z,100555.55
2018-08-07T09:09:10.855Z,100547.23
2018-08-07T09:11:41.898Z,100545.45
2018-08-07T09:14:12.417Z,100539.56
2018-08-07T09:16:43.134Z,100535.32
2018-08-07T09:19:12.468Z,100535.22
2018-08-07T09:21:41.855Z,100529.17
2018-08-07T09:24:11.494Z,100530.58
2018-08-07T09:26:40.330Z,100531.64
2018-08-07T09:29:09.468Z,100527.05
2018-08-07T09:31:37.983Z,100522.70
2018-08-07T09:34:06.966Z,100514.61
2018-08-07T09:36:35.664Z,100512.42
2018-08-07T09:39:08.556Z,100509.09
2018-08-07T09:41:38.493Z,100509.18
2018-08-07T09:44:10.086Z,100507.61
2018-08-07T09:46:39.700Z,100507.55
2018-08-07T09:49:09.222Z,100497.72
2018-08-07T09:51:39.185Z,100492.20
2018-08-07T09:54:09.128Z,100493.28
2018-08-07T09:56:37.971Z,100494.45
2018-08-07T09:59:07.448Z,100492.77
2018-08-07T10:01:41.794Z,100486.27
2018-08-07T10:04:12.050Z,100484.18
2018-08-07T10:06:41.085Z,100481.23
2018-08-07T10:09:11.041Z,100479.99
2018-08-07T10:11:40.729Z,100480.77
2018-08-07T10:14:10.339Z,100473.66
2018-08-07T10:16:39.710Z,100472.48
2018-08-07T10:19:09.087Z,100473.41
2018-08-07T10:21:38.409Z,100468.09
2018-08-07T10:24:09.849Z,100467.81
2018-08-07T10:26:38.848Z,100458.92
2018-08-07T10:29:07.940Z,100460.44
2018-08-07T10:31:38.507Z,100458.53
2018-08-07T10:34:08.057Z,100460.14
2018-08-07T10:36:37.078Z,100451.34
2018-08-07T10:39:11.075Z,100437.00
2018-08-07T10:41:46.423Z,100444.55
2018-08-07T10:44:17.547Z,100437.91
2018-08-07T10:46:48.480Z,100434.05
2018-08-07T10:49:17.797Z,100433.69
2018-08-07T10:51:48.236Z,100424.25
2018-08-07T10:54:18.714Z,100423.77
2018-08-07T10:56:48.559Z,100421.43
2018-08-07T10:59:19.013Z,100413.93
2018-08-07T11:01:48.949Z,100412.61
2018-08-07T11:04:19.213Z,100412.31
2018-08-07T11:06:49.216Z,100406.15
2018-08-07T11:09:18.989Z,100405.31
2018-08-07T11:11:51.146Z,100397.98
2018-08-07T11:14:20.639Z,100400.47
2018-08-07T11:16:49.095Z,100399.92
2018-08-07T11:19:19.391Z,100392.22
2018-08-07T11:21:50.204Z,100392.00
2018-08-07T11:24:22.443Z,100391.47
2018-08-07T11:26:52.962Z,100392.47
2018-08-07T11:29:21.996Z,100384.52
2018-08-07T11:31:51.517Z,100379.37
2018-08-07T11:34:20.084Z,100387.58
2018-08-07T11:36:52.007Z,100385.34
2018-08-07T11:39:20.677Z,100380.23
2018-08-07T11:41:56.912Z,100381.31
2018-08-07T11:44:25.343Z,100376.28
2018-08-07T11:46:54.779Z,100377.67
2018-08-07T11:49:23.867Z,100377.90
2018-08-07T11:51:52.493Z,100379.08
2018-08-07T11:54:21.093Z,100377.62
2018-08-07T11:56:49.637Z,100371.16
2018-08-07T11:59:20.031Z,100357.16
2018-08-07T12:01:50.291Z,100359.06
2018-08-07T12:04:19.490Z,100350.43
2018-08-07T12:06:48.153Z,100349.48
2018-08-07T12:09:17.377Z,100347.35
2018-08-07T12:11:46.048Z,100342.85
2018-08-07T12:14:14.599Z,100339.05
2018-08-07T12:16:44.781Z,100329.41
2018-08-07T12:19:13.254Z,100336.95
2018-08-07T12:21:42.604Z,100334.95
2018-08-07T12:24:11.457Z,100333.61
2018-08-07T12:26:40.405Z,100328.78
2018-08-07T12:29:08.958Z,100319.94
2018-08-07T12:31:38.181Z,100318.78
2018-08-07T12:34:06.667Z,100315.72
2018-08-07T12:36:35.806Z,100317.07
2018-08-07T12:39:07.670Z,100315.05
2018-08-07T12:41:36.355Z,100315.88
2018-08-07T12:44:04.954Z,100317.72
2018-08-07T12:46:35.415Z,100317.56
2018-08-07T12:49:04.907Z,100305.58
2018-08-07T12:51:33.457Z,100310.27
2018-08-07T12:54:03.399Z,100307.75
2018-08-07T12:56:33.307Z,100310.06
2018-08-07T12:59:02.375Z,100309.39
2018-08-07T13:01:31.247Z,100305.31
2018-08-07T13:04:01.638Z,100299.58
2018-08-07T13:06:31.031Z,100297.05
2018-08-07T13:09:00.328Z,100288.85
2018-08-07T13:11:30.422Z,100285.84
2018-08-07T13:14:01.430Z,100282.67
2018-08-07T13:17:09.624Z,100288.85
2018-08-07T13:19:39.328Z,100291.96
2018-08-07T13:22:09.640Z,100284.21
2018-08-07T13:24:39.467Z,100280.25
2018-08-07T13:27:09.207Z,100279.33
2018-08-07T13:29:39.809Z,100279.25
2018-08-07T13:32:08.867Z,100270.88
2018-08-07T13:34:38.070Z,100272.16
2018-08-07T13:37:06.771Z,100268.32
2018-08-07T13:39:35.423Z,100271.47
2018-08-07T13:42:04.566Z,100271.73
2018-08-07T13:44:35.293Z,100275.08
2018-08-07T13:47:04.663Z,100268.02
2018-08-07T13:49:34.080Z,100269.16
2018-08-07T13:52:02.591Z,100267.81
2018-08-07T13:54:33.720Z,100264.36
2018-08-07T13:57:04.457Z,100260.87
2018-08-07T13:59:33.309Z,100266.52
2018-08-07T14:02:04.925Z,100262.80
2018-08-07T14:04:34.213Z,100259.48
2018-08-07T14:07:04.147Z,100251.74
2018-08-07T14:09:38.560Z,100253.72
2018-08-07T14:12:07.387Z,100248.73
2018-08-07T14:14:36.570Z,100248.69
2018-08-07T14:17:07.229Z,100238.92
2018-08-07T14:19:36.782Z,100241.84
2018-08-07T14:22:10.284Z,100237.58
2018-08-07T14:24:40.298Z,100234.67
2018-08-07T14:27:10.428Z,100237.98
2018-08-07T14:29:38.962Z,100232.63
2018-08-07T14:32:07.828Z,100238.72
2018-08-07T14:34:36.622Z,100235.73
2018-08-07T14:37:05.304Z,100229.80
2018-08-07T14:39:34.764Z,100229.59
2018-08-07T14:42:04.486Z,100224.05
2018-08-07T14:44:33.230Z,100219.75
2018-08-07T14:47:02.759Z,100225.80
2018-08-07T14:49:34.264Z,100215.62
2018-08-07T14:52:04.027Z,100211.55
2018-08-07T14:54:32.969Z,100210.27
2018-08-07T14:57:01.717Z,100212.77
2018-08-07T14:59:30.906Z,100210.59
2018-08-07T15:01:59.987Z,100205.73
2018-08-07T15:04:28.832Z,100199.98
2018-08-07T15:06:57.276Z,100198.02
2018-08-07T15:09:27.606Z,100195.28
2018-08-07T15:11:56.277Z,100197.23
2018-08-07T15:14:24.874Z,100194.78
2018-08-07T15:16:53.508Z,100193.89
2018-08-07T15:19:25.074Z,100189.75
2018-08-07T15:21:54.036Z,100180.17
2018-08-07T15:24:23.997Z,100183.31
2018-08-07T15:26:53.620Z,100183.81
2018-08-07T15:29:24.639Z,100176.90
2018-08-07T15:31:53.895Z,100176.66
2018-08-07T15:34:31.275Z,100177.50
2018-08-07T15:37:00.305Z,100174.38
2018-08-07T15:39:30.217Z,100174.81
2018-08-07T15:41:59.130Z,100162.97
2018-08-07T15:44:29.742Z,100164.81
2018-08-07T15:46:58.838Z,100161.47
2018-08-07T15:49:28.294Z,100161.06
2018-08-07T15:51:56.902Z,100161.19
2018-08-07T15:54:26.158Z,100160.95
2018-08-07T15:56:55.145Z,100162.10
2018-08-07T15:59:24.886Z,100158.39
2018-08-07T16:01:54.294Z,100160.62
2018-08-07T16:04:23.117Z,100158.87
2018-08-07T16:06:53.936Z,100155.58
2018-08-07T16:09:23.092Z,100153.91
2018-08-07T16:11:57.512Z,100156.05
2018-08-07T16:14:28.486Z,100158.53
2018-08-07T16:16:57.838Z,100148.14
2018-08-07T16:19:27.984Z,100157.39
2018-08-07T16:21:58.051Z,100149.51
2018-08-07T16:24:26.726Z,100152.52
2018-08-07T16:26:55.979Z,100155.00
2018-08-07T16:29:27.993Z,100143.31
2018-08-07T16:31:59.048Z,100147.78
2018-08-07T16:34:28.534Z,100139.48
2018-08-07T16:36:57.079Z,100143.11
2018-08-07T16:39:25.720Z,100139.47
2018-08-07T16:41:55.077Z,100137.98
2018-08-07T16:44:25.238Z,100144.86
2018-08-07T16:46:54.917Z,100142.47
2018-08-07T16:49:24.024Z,100131.66
2018-08-07T16:51:53.266Z,100132.11
2018-08-07T16:54:23.822Z,100135.22
2018-08-07T16:56:55.277Z,100132.47
2018-08-07T16:59:24.812Z,100132.69
2018-08-07T17:01:55.069Z,100131.09
2018-08-07T17:04:31.502Z,100119.98
2018-08-07T17:08:33.466Z,100126.55
2018-08-07T17:11:02.172Z,100124.81
2018-08-07T17:13:30.836Z,100133.89
2018-08-07T17:15:59.689Z,100127.95
2018-08-07T17:18:29.240Z,100127.01
2018-08-07T17:20:57.863Z,100121.40
2018-08-07T17:23:26.895Z,100125.73
2018-08-07T17:25:56.056Z,100117.59
2018-08-07T17:28:24.731Z,100120.44
2018-08-07T17:30:53.607Z,100123.80
2018-08-07T17:33:22.288Z,100119.80
2018-08-07T17:35:50.962Z,100122.78
2018-08-07T17:38:20.567Z,100122.63
2018-08-07T17:40:49.827Z,100124.80
2018-08-07T17:43:20.480Z,100125.81
2018-08-07T17:45:54.173Z,100130.16
2018-08-07T17:48:30.073Z,100124.13
2018-08-07T17:51:00.185Z,100125.15
2018-08-07T17:53:31.742Z,100126.97
2018-08-07T17:56:00.385Z,100117.75
2018-08-07T17:58:28.891Z,100123.42
2018-08-07T18:00:58.430Z,100122.42
2018-08-07T18:03:27.586Z,100127.41
2018-08-07T18:05:58.385Z,100131.92
2018-08-07T18:08:27.900Z,100130.59
2018-08-07T18:10:59.911Z,100127.75
2018-08-07T18:13:47.849Z,100126.41
2018-08-07T18:16:17.868Z,100124.55
2018-08-07T18:18:53.515Z,100128.03
2018-08-07T18:21:25.984Z,100124.64
2018-08-07T18:23:54.776Z,100123.45
2018-08-07T18:26:29.911Z,100120.58
2018-08-07T18:29:03.928Z,100123.41
2018-08-07T18:31:34.119Z,100117.37
2018-08-07T18:34:04.381Z,100120.31
2018-08-07T18:36:34.800Z,100121.30
2018-08-07T18:39:05.340Z,100123.05
2018-08-07T18:41:36.273Z,100119.38
2018-08-07T18:44:06.769Z,100125.37
2018-08-07T18:46:36.341Z,100123.66
2018-08-07T18:49:12.916Z,100129.45
2018-08-07T18:51:46.848Z,100141.25
2018-08-07T18:54:17.292Z,100140.03
2018-08-07T18:56:46.516Z,100144.52
2018-08-07T18:59:16.207Z,100149.84
2018-08-07T19:01:46.520Z,100150.67
2018-08-07T19:04:17.309Z,100158.30
2018-08-07T19:06:48.499Z,100157.51
2018-08-07T19:09:19.324Z,100154.64
2018-08-07T19:11:50.799Z,100155.00
2018-08-07T19:14:21.005Z,100160.70
2018-08-07T19:16:52.150Z,100169.03
2018-08-07T19:19:22.074Z,100160.13
2018-08-07T19:21:54.581Z,100171.95
2018-08-07T19:24:25.879Z,100173.06
2018-08-07T19:26:57.589Z,100164.50
2018-08-07T19:29:27.070Z,100168.24
2018-08-07T19:31:56.827Z,100167.67
2018-08-07T19:34:25.399Z,100163.98
2018-08-07T19:36:54.037Z,100163.63
2018-08-07T19:39:22.679Z,100163.45
2018-08-07T19:41:51.995Z,100172.78
2018-08-07T19:44:32.336Z,100180.69
2018-08-07T19:47:02.028Z,100188.94
2018-08-07T19:49:31.631Z,100193.95
2018-08-07T19:52:01.745Z,100192.08
2018-08-07T19:54:32.546Z,100188.52
2018-08-07T19:57:02.362Z,100192.86
2018-08-07T19:59:33.108Z,100187.98
2018-08-07T20:02:04.291Z,100188.33
2018-08-07T20:04:34.469Z,100186.94
2018-08-07T20:07:05.191Z,100182.91
2018-08-07T20:09:36.120Z,100184.84
2018-08-07T20:12:07.658Z,100173.84
2018-08-07T20:14:38.141Z,100177.83
2018-08-07T20:17:10.081Z,100174.33
2018-08-07T20:19:39.382Z,100172.00
2018-08-07T20:22:15.625Z,100164.05
2018-08-07T20:24:49.816Z,100157.88
2018-08-07T20:27:22.986Z,100150.76
2018-08-07T20:29:55.093Z,100144.23
2018-08-07T20:32:26.009Z,100146.45
2018-08-07T20:34:55.887Z,100134.94
2018-08-07T20:37:25.451Z,100139.38
2018-08-07T20:39:57.201Z,100140.39
2018-08-07T20:42:26.404Z,100139.16
2018-08-07T20:44:55.351Z,100140.06
2018-08-07T20:47:25.969Z,100140.90
2018-08-07T20:49:54.605Z,100146.00
2018-08-07T20:52:24.226Z,100142.70
2018-08-07T20:54:55.704Z,100146.84
2018-08-07T20:57:25.598Z,100140.55
2018-08-07T20:59:54.306Z,100143.19
2018-08-07T21:02:24.517Z,100147.17
2018-08-07T21:04:53.101Z,100147.09
2018-08-07T21:07:23.634Z,100152.52
2018-08-07T21:09:53.652Z,100150.20
2018-08-07T21:12:29.333Z,100152.94
2018-08-07T21:15:01.992Z,100155.03
2018-08-07T21:17:31.248Z,100159.05
2018-08-07T21:20:02.928Z,100162.05
2018-08-07T21:22:34.463Z,100162.18
2018-08-07T21:25:04.461Z,100162.10
2018-08-07T21:27:34.201Z,100162.86
2018-08-07T21:30:02.894Z,100163.98
2018-08-07T21:32:31.580Z,100163.90
2018-08-07T21:35:00.499Z,100163.50
2018-08-07T21:37:29.186Z,100165.03
2018-08-07T21:39:58.720Z,100174.94
2018-08-07T21:42:27.918Z,100173.25
2018-08-07T21:44:56.872Z,100180.14
2018-08-07T21:47:25.953Z,100178.19
2018-08-07T21:49:56.349Z,100176.37
2018-08-07T21:52:26.260Z,100171.72
2018-08-07T21:54:55.652Z,100173.73
2018-08-07T21:57:24.627Z,100182.16
2018-08-07T21:59:53.421Z,100177.98
2018-08-07T22:02:22.269Z,100182.03
2018-08-07T22:04:51.406Z,100186.84
2018-08-07T22:07:21.875Z,100180.64
2018-08-07T22:09:50.568Z,100181.12
2018-08-07T22:12:19.699Z,100179.39
2018-08-07T22:14:49.961Z,100174.81
2018-08-07T22:17:18.639Z,100169.36
2018-08-07T22:19:48.896Z,100163.02
2018-08-07T22:22:17.375Z,100158.56
2018-08-07T22:24:46.836Z,100151.83
2018-08-07T22:27:15.444Z,100150.11
2018-08-07T22:29:44.129Z,100143.69
2018-08-07T22:32:12.710Z,100144.96
2018-08-07T22:34:41.919Z,100147.89
2018-08-07T22:37:13.110Z,100144.32
2018-08-07T22:39:41.609Z,100150.52
2018-08-07T22:42:10.571Z,100148.84
2018-08-07T22:44:40.975Z,100150.64
2018-08-07T22:47:09.995Z,100143.34
2018-08-07T22:49:39.090Z,100143.59
2018-08-07T22:52:08.360Z,100140.81
2018-08-07T22:54:37.661Z,100134.84
2018-08-07T22:57:06.872Z,100143.30
2018-08-07T22:59:36.897Z,100142.16
2018-08-07T23:02:05.987Z,100142.52
2018-08-07T23:04:34.508Z,100144.59
2018-08-07T23:07:03.834Z,100139.78
2018-08-07T23:09:34.822Z,100133.65
2018-08-07T23:12:04.016Z,100132.03
2018-08-07T23:14:32.565Z,100128.91
2018-08-07T23:17:01.264Z,100120.61
2018-08-07T23:19:30.767Z,100123.31
2018-08-07T23:21:59.446Z,100111.41
2018-08-07T23:24:28.723Z,100118.59
2018-08-07T23:26:57.529Z,100117.88
2018-08-07T23:29:26.142Z,100120.67
2018-08-07T23:31:55.622Z,100115.98
2018-08-07T23:34:24.244Z,100108.11
2018-08-07T23:36:53.900Z,100104.50
2018-08-07T23:39:22.523Z,100101.17
2018-08-07T23:41:52.139Z,100097.20
2018-08-07T23:44:21.626Z,100100.59
2018-08-07T23:46:50.334Z,100096.18
2018-08-07T23:49:19.089Z,100102.70
2018-08-07T23:51:48.298Z,100097.59
2018-08-07T23:54:17.740Z,100104.89
2018-08-07T23:56:46.406Z,100099.96
2018-08-07T23:59:16.359Z,100109.70
